sensor_id;sensor_type;location;lat;lon;timestamp;P1;durP1;ratioP1;P2;durP2;ratioP2
14470;SDS011;7321;50.802;4.336;2023-04-07T00:01:58;14.67;;;7.50;;
14470;SDS011;7321;50.802;4.336;2023-04-07T00:04:24;13.07;;;7.33;;
14470;SDS011;7321;50.802;4.336;2023-04-07T00:06:50;15.70;;;8.77;;
14470;SDS011;7321;50.802;4.336;2023-04-07T00:09:16;16.50;;;9.47;;
14470;SDS011;7321;50.802;4.336;2023-04-07T00:11:41;17.43;;;8.90;;
14470;SDS011;7321;50.802;4.336;2023-04-07T00:14:07;15.43;;;8.37;;
14470;SDS011;7321;50.802;4.336;2023-04-07T00:16:33;16.20;;;9.33;;
14470;SDS011;7321;50.802;4.336;2023-04-07T00:18:59;14.70;;;8.57;;
14470;SDS011;7321;50.802;4.336;2023-04-07T00:21:25;15.70;;;8.80;;
14470;SDS011;7321;50.802;4.336;2023-04-07T00:23:51;15.70;;;8.63;;
14470;SDS011;7321;50.802;4.336;2023-04-07T00:26:17;14.37;;;8.93;;
14470;SDS011;7321;50.802;4.336;2023-04-07T00:28:42;15.03;;;9.50;;
14470;SDS011;7321;50.802;4.336;2023-04-07T00:31:08;15.33;;;8.87;;
14470;SDS011;7321;50.802;4.336;2023-04-07T00:33:34;15.13;;;8.50;;
14470;SDS011;7321;50.802;4.336;2023-04-07T00:36:00;17.47;;;8.83;;
14470;SDS011;7321;50.802;4.336;2023-04-07T00:38:26;14.23;;;9.13;;
14470;SDS011;7321;50.802;4.336;2023-04-07T00:40:57;16.13;;;8.97;;
14470;SDS011;7321;50.802;4.336;2023-04-07T00:43:24;13.77;;;9.03;;
14470;SDS011;7321;50.802;4.336;2023-04-07T00:45:50;17.80;;;9.87;;
14470;SDS011;7321;50.802;4.336;2023-04-07T00:48:17;18.73;;;9.80;;
14470;SDS011;7321;50.802;4.336;2023-04-07T00:50:44;15.90;;;8.90;;
14470;SDS011;7321;50.802;4.336;2023-04-07T00:53:10;16.97;;;9.17;;
14470;SDS011;7321;50.802;4.336;2023-04-07T00:55:36;19.70;;;9.07;;
14470;SDS011;7321;50.802;4.336;2023-04-07T00:58:02;17.40;;;9.50;;
14470;SDS011;7321;50.802;4.336;2023-04-07T01:00:35;16.07;;;9.23;;
14470;SDS011;7321;50.802;4.336;2023-04-07T01:03:12;14.53;;;9.30;;
14470;SDS011;7321;50.802;4.336;2023-04-07T01:06:02;16.07;;;9.40;;
14470;SDS011;7321;50.802;4.336;2023-04-07T01:13:50;15.90;;;10.10;;
14470;SDS011;7321;50.802;4.336;2023-04-07T01:16:26;18.10;;;10.60;;
14470;SDS011;7321;50.802;4.336;2023-04-07T01:22:05;18.33;;;10.47;;
14470;SDS011;7321;50.802;4.336;2023-04-07T01:27:37;14.03;;;9.97;;
14470;SDS011;7321;50.802;4.336;2023-04-07T01:30:16;16.40;;;11.10;;
14470;SDS011;7321;50.802;4.336;2023-04-07T01:32:43;15.63;;;9.20;;
14470;SDS011;7321;50.802;4.336;2023-04-07T01:35:11;13.40;;;10.03;;
14470;SDS011;7321;50.802;4.336;2023-04-07T01:37:39;13.53;;;9.90;;
14470;SDS011;7321;50.802;4.336;2023-04-07T01:40:06;17.47;;;10.73;;
14470;SDS011;7321;50.802;4.336;2023-04-07T01:42:33;13.87;;;10.43;;
14470;SDS011;7321;50.802;4.336;2023-04-07T01:45:00;15.67;;;10.57;;
14470;SDS011;7321;50.802;4.336;2023-04-07T01:47:28;15.83;;;11.57;;
14470;SDS011;7321;50.802;4.336;2023-04-07T01:49:58;15.70;;;10.60;;
14470;SDS011;7321;50.802;4.336;2023-04-07T01:52:28;14.77;;;11.47;;
14470;SDS011;7321;50.802;4.336;2023-04-07T01:54:55;14.20;;;10.80;;
14470;SDS011;7321;50.802;4.336;2023-04-07T01:57:21;16.37;;;11.03;;
14470;SDS011;7321;50.802;4.336;2023-04-07T01:59:47;15.27;;;10.50;;
14470;SDS011;7321;50.802;4.336;2023-04-07T02:02:13;14.83;;;10.60;;
14470;SDS011;7321;50.802;4.336;2023-04-07T02:04:42;14.37;;;11.10;;
14470;SDS011;7321;50.802;4.336;2023-04-07T02:07:21;14.00;;;11.43;;
14470;SDS011;7321;50.802;4.336;2023-04-07T02:10:05;17.30;;;11.10;;
14470;SDS011;7321;50.802;4.336;2023-04-07T02:12:36;13.20;;;10.23;;
14470;SDS011;7321;50.802;4.336;2023-04-07T02:15:04;15.23;;;10.97;;
14470;SDS011;7321;50.802;4.336;2023-04-07T02:17:32;16.37;;;10.73;;
14470;SDS011;7321;50.802;4.336;2023-04-07T02:20:00;13.43;;;10.90;;
14470;SDS011;7321;50.802;4.336;2023-04-07T02:22:28;14.93;;;10.97;;
14470;SDS011;7321;50.802;4.336;2023-04-07T02:24:55;15.97;;;10.30;;
14470;SDS011;7321;50.802;4.336;2023-04-07T02:27:20;13.27;;;9.77;;
14470;SDS011;7321;50.802;4.336;2023-04-07T02:29:46;12.57;;;10.20;;
14470;SDS011;7321;50.802;4.336;2023-04-07T02:32:12;16.50;;;10.50;;
14470;SDS011;7321;50.802;4.336;2023-04-07T02:34:38;14.23;;;11.07;;
14470;SDS011;7321;50.802;4.336;2023-04-07T02:37:03;13.63;;;11.17;;
14470;SDS011;7321;50.802;4.336;2023-04-07T02:39:29;14.60;;;10.90;;
14470;SDS011;7321;50.802;4.336;2023-04-07T02:41:55;15.70;;;10.77;;
14470;SDS011;7321;50.802;4.336;2023-04-07T02:44:21;13.77;;;10.53;;
14470;SDS011;7321;50.802;4.336;2023-04-07T02:46:47;15.30;;;10.80;;
14470;SDS011;7321;50.802;4.336;2023-04-07T02:49:12;12.47;;;9.33;;
14470;SDS011;7321;50.802;4.336;2023-04-07T02:51:38;13.67;;;9.83;;
14470;SDS011;7321;50.802;4.336;2023-04-07T02:54:04;12.13;;;9.13;;
14470;SDS011;7321;50.802;4.336;2023-04-07T02:56:30;14.10;;;8.57;;
14470;SDS011;7321;50.802;4.336;2023-04-07T02:58:56;13.17;;;9.50;;
14470;SDS011;7321;50.802;4.336;2023-04-07T03:01:22;11.73;;;9.60;;
14470;SDS011;7321;50.802;4.336;2023-04-07T03:03:48;13.70;;;9.30;;
14470;SDS011;7321;50.802;4.336;2023-04-07T03:06:14;10.47;;;8.23;;
14470;SDS011;7321;50.802;4.336;2023-04-07T03:08:40;11.23;;;8.53;;
14470;SDS011;7321;50.802;4.336;2023-04-07T03:11:06;10.97;;;7.93;;
14470;SDS011;7321;50.802;4.336;2023-04-07T03:13:32;14.30;;;9.43;;
14470;SDS011;7321;50.802;4.336;2023-04-07T03:15:58;12.00;;;8.47;;
14470;SDS011;7321;50.802;4.336;2023-04-07T03:18:23;13.77;;;8.67;;
14470;SDS011;7321;50.802;4.336;2023-04-07T03:20:49;12.33;;;8.83;;
14470;SDS011;7321;50.802;4.336;2023-04-07T03:23:17;11.93;;;7.73;;
14470;SDS011;7321;50.802;4.336;2023-04-07T03:25:43;12.50;;;8.50;;
14470;SDS011;7321;50.802;4.336;2023-04-07T03:28:09;11.37;;;8.63;;
14470;SDS011;7321;50.802;4.336;2023-04-07T03:30:35;11.80;;;8.80;;
14470;SDS011;7321;50.802;4.336;2023-04-07T03:33:01;11.23;;;9.03;;
14470;SDS011;7321;50.802;4.336;2023-04-07T03:35:27;11.63;;;8.73;;
14470;SDS011;7321;50.802;4.336;2023-04-07T03:37:53;10.67;;;8.97;;
14470;SDS011;7321;50.802;4.336;2023-04-07T03:40:18;13.17;;;9.40;;
14470;SDS011;7321;50.802;4.336;2023-04-07T03:42:45;13.33;;;9.60;;
14470;SDS011;7321;50.802;4.336;2023-04-07T03:45:10;11.30;;;9.03;;
14470;SDS011;7321;50.802;4.336;2023-04-07T03:47:36;11.70;;;8.77;;
14470;SDS011;7321;50.802;4.336;2023-04-07T03:50:02;13.63;;;9.33;;
14470;SDS011;7321;50.802;4.336;2023-04-07T03:52:28;15.50;;;9.53;;
14470;SDS011;7321;50.802;4.336;2023-04-07T03:54:54;13.63;;;9.37;;
14470;SDS011;7321;50.802;4.336;2023-04-07T03:57:20;12.67;;;10.23;;
14470;SDS011;7321;50.802;4.336;2023-04-07T03:59:46;17.10;;;11.37;;
14470;SDS011;7321;50.802;4.336;2023-04-07T04:02:15;17.50;;;12.13;;
14470;SDS011;7321;50.802;4.336;2023-04-07T04:04:41;15.50;;;10.83;;
14470;SDS011;7321;50.802;4.336;2023-04-07T04:07:07;14.97;;;10.60;;
14470;SDS011;7321;50.802;4.336;2023-04-07T04:09:32;17.67;;;11.33;;
14470;SDS011;7321;50.802;4.336;2023-04-07T04:11:58;17.57;;;11.57;;
14470;SDS011;7321;50.802;4.336;2023-04-07T04:14:25;19.63;;;12.97;;
14470;SDS011;7321;50.802;4.336;2023-04-07T04:16:51;18.03;;;11.67;;
14470;SDS011;7321;50.802;4.336;2023-04-07T04:19:17;19.67;;;12.53;;
14470;SDS011;7321;50.802;4.336;2023-04-07T04:21:43;19.37;;;12.40;;
14470;SDS011;7321;50.802;4.336;2023-04-07T04:24:09;22.27;;;13.70;;
14470;SDS011;7321;50.802;4.336;2023-04-07T04:26:34;24.13;;;14.47;;
14470;SDS011;7321;50.802;4.336;2023-04-07T04:29:00;20.70;;;13.90;;
14470;SDS011;7321;50.802;4.336;2023-04-07T04:31:27;18.77;;;13.73;;
14470;SDS011;7321;50.802;4.336;2023-04-07T04:33:53;27.40;;;15.53;;
14470;SDS011;7321;50.802;4.336;2023-04-07T04:36:19;25.97;;;15.90;;
14470;SDS011;7321;50.802;4.336;2023-04-07T04:38:45;26.53;;;15.83;;
14470;SDS011;7321;50.802;4.336;2023-04-07T04:41:10;32.47;;;17.57;;
14470;SDS011;7321;50.802;4.336;2023-04-07T04:43:36;31.03;;;16.90;;
14470;SDS011;7321;50.802;4.336;2023-04-07T04:46:02;30.73;;;18.17;;
14470;SDS011;7321;50.802;4.336;2023-04-07T04:48:28;30.30;;;17.10;;
14470;SDS011;7321;50.802;4.336;2023-04-07T04:50:54;30.30;;;18.20;;
14470;SDS011;7321;50.802;4.336;2023-04-07T04:53:20;35.33;;;18.57;;
14470;SDS011;7321;50.802;4.336;2023-04-07T04:55:46;38.07;;;21.77;;
14470;SDS011;7321;50.802;4.336;2023-04-07T04:58:16;39.23;;;21.03;;
14470;SDS011;7321;50.802;4.336;2023-04-07T05:00:43;37.63;;;20.93;;
14470;SDS011;7321;50.802;4.336;2023-04-07T05:03:09;38.80;;;20.27;;
14470;SDS011;7321;50.802;4.336;2023-04-07T05:05:35;36.90;;;18.30;;
14470;SDS011;7321;50.802;4.336;2023-04-07T05:08:00;38.37;;;19.97;;
14470;SDS011;7321;50.802;4.336;2023-04-07T05:10:26;33.30;;;19.23;;
14470;SDS011;7321;50.802;4.336;2023-04-07T05:12:52;37.23;;;19.73;;
14470;SDS011;7321;50.802;4.336;2023-04-07T05:15:18;35.57;;;19.20;;
14470;SDS011;7321;50.802;4.336;2023-04-07T05:17:44;41.10;;;21.37;;
14470;SDS011;7321;50.802;4.336;2023-04-07T05:20:14;39.20;;;20.07;;
14470;SDS011;7321;50.802;4.336;2023-04-07T05:22:41;35.27;;;19.90;;
14470;SDS011;7321;50.802;4.336;2023-04-07T05:25:07;35.13;;;21.10;;
14470;SDS011;7321;50.802;4.336;2023-04-07T05:27:33;36.37;;;19.47;;
14470;SDS011;7321;50.802;4.336;2023-04-07T05:29:59;37.07;;;19.60;;
14470;SDS011;7321;50.802;4.336;2023-04-07T05:32:26;41.63;;;20.23;;
14470;SDS011;7321;50.802;4.336;2023-04-07T05:34:52;39.33;;;19.50;;
14470;SDS011;7321;50.802;4.336;2023-04-07T05:37:18;41.00;;;20.87;;
14470;SDS011;7321;50.802;4.336;2023-04-07T05:39:44;40.43;;;20.37;;
14470;SDS011;7321;50.802;4.336;2023-04-07T05:42:10;35.27;;;20.53;;
14470;SDS011;7321;50.802;4.336;2023-04-07T05:44:36;32.63;;;19.47;;
14470;SDS011;7321;50.802;4.336;2023-04-07T05:47:02;37.07;;;19.00;;
14470;SDS011;7321;50.802;4.336;2023-04-07T05:49:32;36.17;;;19.87;;
14470;SDS011;7321;50.802;4.336;2023-04-07T05:52:01;35.90;;;21.07;;
14470;SDS011;7321;50.802;4.336;2023-04-07T05:54:30;37.83;;;19.80;;
14470;SDS011;7321;50.802;4.336;2023-04-07T05:56:55;31.23;;;18.27;;
14470;SDS011;7321;50.802;4.336;2023-04-07T05:59:21;34.30;;;19.07;;
14470;SDS011;7321;50.802;4.336;2023-04-07T06:01:47;31.90;;;19.03;;
14470;SDS011;7321;50.802;4.336;2023-04-07T06:04:13;34.80;;;19.03;;
14470;SDS011;7321;50.802;4.336;2023-04-07T06:06:39;37.17;;;20.10;;
14470;SDS011;7321;50.802;4.336;2023-04-07T06:09:05;34.50;;;19.90;;
14470;SDS011;7321;50.802;4.336;2023-04-07T06:11:31;32.47;;;18.87;;
14470;SDS011;7321;50.802;4.336;2023-04-07T06:13:56;37.67;;;20.03;;
14470;SDS011;7321;50.802;4.336;2023-04-07T06:16:22;37.10;;;21.13;;
14470;SDS011;7321;50.802;4.336;2023-04-07T06:18:48;34.90;;;21.10;;
14470;SDS011;7321;50.802;4.336;2023-04-07T06:21:14;37.20;;;20.43;;
14470;SDS011;7321;50.802;4.336;2023-04-07T06:23:40;38.00;;;22.33;;
14470;SDS011;7321;50.802;4.336;2023-04-07T06:26:09;35.90;;;21.73;;
14470;SDS011;7321;50.802;4.336;2023-04-07T06:28:36;33.30;;;21.30;;
14470;SDS011;7321;50.802;4.336;2023-04-07T06:31:02;35.13;;;21.37;;
14470;SDS011;7321;50.802;4.336;2023-04-07T06:33:28;38.53;;;22.93;;
14470;SDS011;7321;50.802;4.336;2023-04-07T06:35:53;37.37;;;23.03;;
14470;SDS011;7321;50.802;4.336;2023-04-07T06:38:20;41.40;;;23.37;;
14470;SDS011;7321;50.802;4.336;2023-04-07T06:40:46;37.20;;;22.83;;
14470;SDS011;7321;50.802;4.336;2023-04-07T06:43:12;35.03;;;21.83;;
14470;SDS011;7321;50.802;4.336;2023-04-07T06:45:38;31.77;;;20.63;;
14470;SDS011;7321;50.802;4.336;2023-04-07T06:48:04;37.17;;;22.93;;
14470;SDS011;7321;50.802;4.336;2023-04-07T06:50:30;32.60;;;21.30;;
14470;SDS011;7321;50.802;4.336;2023-04-07T06:52:55;40.60;;;22.10;;
14470;SDS011;7321;50.802;4.336;2023-04-07T06:55:21;38.97;;;23.27;;
14470;SDS011;7321;50.802;4.336;2023-04-07T06:57:47;36.57;;;22.23;;
14470;SDS011;7321;50.802;4.336;2023-04-07T07:00:16;36.97;;;22.20;;
14470;SDS011;7321;50.802;4.336;2023-04-07T07:02:43;31.43;;;21.27;;
14470;SDS011;7321;50.802;4.336;2023-04-07T07:05:09;32.93;;;19.97;;
14470;SDS011;7321;50.802;4.336;2023-04-07T07:07:35;27.13;;;19.27;;
14470;SDS011;7321;50.802;4.336;2023-04-07T07:10:01;30.03;;;18.27;;
14470;SDS011;7321;50.802;4.336;2023-04-07T07:12:28;22.93;;;15.90;;
14470;SDS011;7321;50.802;4.336;2023-04-07T07:14:53;24.87;;;16.80;;
14470;SDS011;7321;50.802;4.336;2023-04-07T07:17:19;25.53;;;15.30;;
14470;SDS011;7321;50.802;4.336;2023-04-07T07:19:45;22.77;;;15.67;;
14470;SDS011;7321;50.802;4.336;2023-04-07T07:22:11;20.83;;;15.80;;
14470;SDS011;7321;50.802;4.336;2023-04-07T07:24:37;18.77;;;14.67;;
14470;SDS011;7321;50.802;4.336;2023-04-07T07:27:02;22.60;;;15.70;;
14470;SDS011;7321;50.802;4.336;2023-04-07T07:29:28;20.30;;;14.50;;
14470;SDS011;7321;50.802;4.336;2023-04-07T07:31:54;22.50;;;15.13;;
14470;SDS011;7321;50.802;4.336;2023-04-07T07:34:20;20.37;;;14.30;;
14470;SDS011;7321;50.802;4.336;2023-04-07T07:36:46;17.60;;;13.43;;
14470;SDS011;7321;50.802;4.336;2023-04-07T07:39:12;21.53;;;13.10;;
14470;SDS011;7321;50.802;4.336;2023-04-07T07:41:38;19.57;;;13.50;;
14470;SDS011;7321;50.802;4.336;2023-04-07T07:44:04;16.13;;;12.43;;
14470;SDS011;7321;50.802;4.336;2023-04-07T07:46:30;17.00;;;11.80;;
14470;SDS011;7321;50.802;4.336;2023-04-07T07:48:56;13.57;;;10.63;;
14470;SDS011;7321;50.802;4.336;2023-04-07T07:51:21;15.17;;;10.80;;
14470;SDS011;7321;50.802;4.336;2023-04-07T07:53:47;14.23;;;10.07;;
14470;SDS011;7321;50.802;4.336;2023-04-07T07:56:13;23.03;;;17.93;;
14470;SDS011;7321;50.802;4.336;2023-04-07T07:58:39;16.37;;;11.17;;
14470;SDS011;7321;50.802;4.336;2023-04-07T08:01:05;15.70;;;9.47;;
14470;SDS011;7321;50.802;4.336;2023-04-07T08:03:31;20.47;;;14.93;;
14470;SDS011;7321;50.802;4.336;2023-04-07T08:05:57;19.57;;;12.77;;
14470;SDS011;7321;50.802;4.336;2023-04-07T08:08:23;18.77;;;13.20;;
14470;SDS011;7321;50.802;4.336;2023-04-07T08:10:49;12.90;;;10.47;;
14470;SDS011;7321;50.802;4.336;2023-04-07T08:13:15;15.47;;;9.43;;
14470;SDS011;7321;50.802;4.336;2023-04-07T08:15:40;12.17;;;9.27;;
14470;SDS011;7321;50.802;4.336;2023-04-07T08:18:06;13.37;;;10.23;;
14470;SDS011;7321;50.802;4.336;2023-04-07T08:20:32;14.93;;;10.53;;
14470;SDS011;7321;50.802;4.336;2023-04-07T08:22:59;15.83;;;11.67;;
14470;SDS011;7321;50.802;4.336;2023-04-07T08:25:26;12.97;;;9.63;;
14470;SDS011;7321;50.802;4.336;2023-04-07T08:27:52;17.93;;;11.70;;
14470;SDS011;7321;50.802;4.336;2023-04-07T08:30:18;21.33;;;18.53;;
14470;SDS011;7321;50.802;4.336;2023-04-07T08:32:46;18.43;;;15.23;;
14470;SDS011;7321;50.802;4.336;2023-04-07T08:35:12;12.33;;;8.03;;
14470;SDS011;7321;50.802;4.336;2023-04-07T08:37:38;13.07;;;10.57;;
14470;SDS011;7321;50.802;4.336;2023-04-07T08:40:08;18.73;;;14.43;;
14470;SDS011;7321;50.802;4.336;2023-04-07T08:42:36;17.57;;;14.23;;
14470;SDS011;7321;50.802;4.336;2023-04-07T08:45:10;10.83;;;9.20;;
14470;SDS011;7321;50.802;4.336;2023-04-07T08:47:37;13.77;;;10.97;;
14470;SDS011;7321;50.802;4.336;2023-04-07T08:50:09;15.00;;;9.73;;
14470;SDS011;7321;50.802;4.336;2023-04-07T08:52:40;10.17;;;7.90;;
14470;SDS011;7321;50.802;4.336;2023-04-07T08:55:10;9.43;;;7.27;;
14470;SDS011;7321;50.802;4.336;2023-04-07T08:57:36;12.00;;;8.57;;
14470;SDS011;7321;50.802;4.336;2023-04-07T09:00:02;12.63;;;7.70;;
14470;SDS011;7321;50.802;4.336;2023-04-07T09:02:37;17.20;;;7.23;;
14470;SDS011;7321;50.802;4.336;2023-04-07T09:05:06;9.70;;;7.10;;
14470;SDS011;7321;50.802;4.336;2023-04-07T09:07:33;10.83;;;8.30;;
14470;SDS011;7321;50.802;4.336;2023-04-07T09:10:00;12.37;;;8.57;;
14470;SDS011;7321;50.802;4.336;2023-04-07T09:12:26;9.07;;;7.17;;
14470;SDS011;7321;50.802;4.336;2023-04-07T09:14:53;10.97;;;8.13;;
14470;SDS011;7321;50.802;4.336;2023-04-07T09:17:19;13.43;;;8.17;;
14470;SDS011;7321;50.802;4.336;2023-04-07T09:19:46;10.83;;;7.20;;
14470;SDS011;7321;50.802;4.336;2023-04-07T09:22:12;10.47;;;7.07;;
14470;SDS011;7321;50.802;4.336;2023-04-07T09:24:39;8.83;;;6.97;;
14470;SDS011;7321;50.802;4.336;2023-04-07T09:27:09;8.00;;;5.60;;
14470;SDS011;7321;50.802;4.336;2023-04-07T09:29:43;4.17;;;3.77;;
14470;SDS011;7321;50.802;4.336;2023-04-07T09:32:10;5.07;;;3.87;;
14470;SDS011;7321;50.802;4.336;2023-04-07T09:34:38;2.60;;;2.37;;
14470;SDS011;7321;50.802;4.336;2023-04-07T09:37:05;3.93;;;2.17;;
14470;SDS011;7321;50.802;4.336;2023-04-07T09:39:50;3.80;;;2.47;;
14470;SDS011;7321;50.802;4.336;2023-04-07T09:42:19;3.57;;;2.27;;
14470;SDS011;7321;50.802;4.336;2023-04-07T09:45:05;4.47;;;2.50;;
14470;SDS011;7321;50.802;4.336;2023-04-07T09:47:32;3.23;;;2.53;;
14470;SDS011;7321;50.802;4.336;2023-04-07T09:49:58;3.53;;;2.20;;
14470;SDS011;7321;50.802;4.336;2023-04-07T09:55:22;3.17;;;1.60;;
14470;SDS011;7321;50.802;4.336;2023-04-07T09:57:51;2.00;;;1.67;;
14470;SDS011;7321;50.802;4.336;2023-04-07T10:00:19;2.33;;;1.67;;
14470;SDS011;7321;50.802;4.336;2023-04-07T10:02:45;2.23;;;1.70;;
14470;SDS011;7321;50.802;4.336;2023-04-07T10:05:12;10.00;;;2.20;;
14470;SDS011;7321;50.802;4.336;2023-04-07T10:07:38;3.43;;;1.80;;
14470;SDS011;7321;50.802;4.336;2023-04-07T10:10:04;4.20;;;2.20;;
14470;SDS011;7321;50.802;4.336;2023-04-07T10:12:36;6.10;;;4.40;;
14470;SDS011;7321;50.802;4.336;2023-04-07T10:15:02;9.97;;;8.03;;
14470;SDS011;7321;50.802;4.336;2023-04-07T10:17:29;8.70;;;5.93;;
14470;SDS011;7321;50.802;4.336;2023-04-07T10:19:57;9.50;;;5.03;;
14470;SDS011;7321;50.802;4.336;2023-04-07T10:22:24;11.80;;;6.63;;
14470;SDS011;7321;50.802;4.336;2023-04-07T10:24:58;10.10;;;7.13;;
14470;SDS011;7321;50.802;4.336;2023-04-07T10:27:36;4.17;;;2.20;;
14470;SDS011;7321;50.802;4.336;2023-04-07T10:30:03;2.10;;;2.00;;
14470;SDS011;7321;50.802;4.336;2023-04-07T10:32:44;12.93;;;11.57;;
14470;SDS011;7321;50.802;4.336;2023-04-07T10:35:14;5.20;;;4.70;;
14470;SDS011;7321;50.802;4.336;2023-04-07T10:37:42;6.00;;;5.40;;
14470;SDS011;7321;50.802;4.336;2023-04-07T10:40:35;8.43;;;5.53;;
14470;SDS011;7321;50.802;4.336;2023-04-07T10:43:01;8.67;;;4.73;;
14470;SDS011;7321;50.802;4.336;2023-04-07T10:48:18;5.53;;;4.20;;
14470;SDS011;7321;50.802;4.336;2023-04-07T10:50:45;9.17;;;5.90;;
14470;SDS011;7321;50.802;4.336;2023-04-07T10:53:32;4.43;;;3.33;;
14470;SDS011;7321;50.802;4.336;2023-04-07T10:56:01;7.50;;;4.53;;
14470;SDS011;7321;50.802;4.336;2023-04-07T10:58:30;6.43;;;4.43;;
14470;SDS011;7321;50.802;4.336;2023-04-07T11:03:29;5.97;;;3.97;;
14470;SDS011;7321;50.802;4.336;2023-04-07T11:06:04;5.57;;;3.60;;
14470;SDS011;7321;50.802;4.336;2023-04-07T11:08:36;6.80;;;3.80;;
14470;SDS011;7321;50.802;4.336;2023-04-07T11:11:04;6.77;;;3.87;;
14470;SDS011;7321;50.802;4.336;2023-04-07T11:16:33;8.40;;;6.00;;
14470;SDS011;7321;50.802;4.336;2023-04-07T11:19:00;22.37;;;17.93;;
14470;SDS011;7321;50.802;4.336;2023-04-07T11:21:26;10.13;;;6.10;;
14470;SDS011;7321;50.802;4.336;2023-04-07T11:23:52;9.57;;;7.80;;
14470;SDS011;7321;50.802;4.336;2023-04-07T11:26:18;10.07;;;8.23;;
14470;SDS011;7321;50.802;4.336;2023-04-07T11:28:48;8.90;;;3.93;;
14470;SDS011;7321;50.802;4.336;2023-04-07T11:31:26;6.67;;;4.77;;
14470;SDS011;7321;50.802;4.336;2023-04-07T11:34:04;6.93;;;4.47;;
14470;SDS011;7321;50.802;4.336;2023-04-07T11:36:31;6.57;;;3.37;;
14470;SDS011;7321;50.802;4.336;2023-04-07T11:39:04;5.73;;;3.00;;
14470;SDS011;7321;50.802;4.336;2023-04-07T11:41:31;5.43;;;3.97;;
14470;SDS011;7321;50.802;4.336;2023-04-07T11:46:30;4.27;;;3.47;;
14470;SDS011;7321;50.802;4.336;2023-04-07T11:49:06;6.93;;;3.57;;
14470;SDS011;7321;50.802;4.336;2023-04-07T11:51:41;6.07;;;3.43;;
14470;SDS011;7321;50.802;4.336;2023-04-07T11:54:09;6.97;;;3.97;;
14470;SDS011;7321;50.802;4.336;2023-04-07T11:56:45;9.17;;;5.57;;
14470;SDS011;7321;50.802;4.336;2023-04-07T11:59:18;10.60;;;4.27;;
14470;SDS011;7321;50.802;4.336;2023-04-07T12:01:45;8.27;;;4.10;;
14470;SDS011;7321;50.802;4.336;2023-04-07T12:04:11;12.13;;;4.67;;
14470;SDS011;7321;50.802;4.336;2023-04-07T12:06:41;8.53;;;4.30;;
14470;SDS011;7321;50.802;4.336;2023-04-07T12:09:24;6.83;;;4.33;;
14470;SDS011;7321;50.802;4.336;2023-04-07T12:11:52;6.93;;;4.20;;
14470;SDS011;7321;50.802;4.336;2023-04-07T12:14:18;9.33;;;4.60;;
14470;SDS011;7321;50.802;4.336;2023-04-07T12:16:44;7.17;;;4.10;;
14470;SDS011;7321;50.802;4.336;2023-04-07T12:19:09;9.23;;;4.67;;
14470;SDS011;7321;50.802;4.336;2023-04-07T12:21:35;8.70;;;4.70;;
14470;SDS011;7321;50.802;4.336;2023-04-07T12:24:01;7.80;;;4.60;;
14470;SDS011;7321;50.802;4.336;2023-04-07T12:26:27;10.47;;;6.17;;
14470;SDS011;7321;50.802;4.336;2023-04-07T12:28:53;9.63;;;4.20;;
14470;SDS011;7321;50.802;4.336;2023-04-07T12:31:19;8.60;;;4.40;;
14470;SDS011;7321;50.802;4.336;2023-04-07T12:33:45;9.73;;;5.10;;
14470;SDS011;7321;50.802;4.336;2023-04-07T12:36:11;7.80;;;4.70;;
14470;SDS011;7321;50.802;4.336;2023-04-07T12:38:37;6.73;;;4.13;;
14470;SDS011;7321;50.802;4.336;2023-04-07T12:41:03;6.13;;;3.47;;
14470;SDS011;7321;50.802;4.336;2023-04-07T12:43:29;6.03;;;3.80;;
14470;SDS011;7321;50.802;4.336;2023-04-07T12:45:55;9.63;;;5.17;;
14470;SDS011;7321;50.802;4.336;2023-04-07T12:48:21;9.03;;;4.43;;
14470;SDS011;7321;50.802;4.336;2023-04-07T12:50:48;7.40;;;4.13;;
14470;SDS011;7321;50.802;4.336;2023-04-07T12:53:14;8.73;;;4.30;;
14470;SDS011;7321;50.802;4.336;2023-04-07T12:55:40;6.47;;;4.00;;
14470;SDS011;7321;50.802;4.336;2023-04-07T12:58:06;7.07;;;4.87;;
14470;SDS011;7321;50.802;4.336;2023-04-07T13:00:33;12.53;;;6.73;;
14470;SDS011;7321;50.802;4.336;2023-04-07T13:02:59;14.57;;;7.10;;
14470;SDS011;7321;50.802;4.336;2023-04-07T13:05:25;7.93;;;5.50;;
14470;SDS011;7321;50.802;4.336;2023-04-07T13:07:52;13.10;;;7.53;;
14470;SDS011;7321;50.802;4.336;2023-04-07T13:10:18;12.47;;;6.10;;
14470;SDS011;7321;50.802;4.336;2023-04-07T13:12:44;19.93;;;9.77;;
14470;SDS011;7321;50.802;4.336;2023-04-07T13:15:10;11.47;;;5.93;;
14470;SDS011;7321;50.802;4.336;2023-04-07T13:17:36;8.70;;;5.97;;
14470;SDS011;7321;50.802;4.336;2023-04-07T13:20:03;9.30;;;6.20;;
14470;SDS011;7321;50.802;4.336;2023-04-07T13:22:29;6.27;;;5.60;;
14470;SDS011;7321;50.802;4.336;2023-04-07T13:24:55;7.10;;;5.33;;
14470;SDS011;7321;50.802;4.336;2023-04-07T13:27:21;9.00;;;4.83;;
14470;SDS011;7321;50.802;4.336;2023-04-07T13:29:47;6.10;;;4.70;;
14470;SDS011;7321;50.802;4.336;2023-04-07T13:32:13;6.60;;;4.30;;
14470;SDS011;7321;50.802;4.336;2023-04-07T13:34:39;9.50;;;5.27;;
14470;SDS011;7321;50.802;4.336;2023-04-07T13:37:06;6.20;;;4.57;;
14470;SDS011;7321;50.802;4.336;2023-04-07T13:39:32;8.07;;;3.97;;
14470;SDS011;7321;50.802;4.336;2023-04-07T13:41:58;5.27;;;3.90;;
14470;SDS011;7321;50.802;4.336;2023-04-07T13:44:24;4.40;;;3.30;;
14470;SDS011;7321;50.802;4.336;2023-04-07T13:46:51;3.90;;;2.83;;
14470;SDS011;7321;50.802;4.336;2023-04-07T13:49:18;5.67;;;3.23;;
14470;SDS011;7321;50.802;4.336;2023-04-07T13:51:44;6.70;;;2.90;;
14470;SDS011;7321;50.802;4.336;2023-04-07T13:54:10;4.63;;;2.93;;
14470;SDS011;7321;50.802;4.336;2023-04-07T13:56:36;7.57;;;2.97;;
14470;SDS011;7321;50.802;4.336;2023-04-07T13:59:04;4.80;;;2.90;;
14470;SDS011;7321;50.802;4.336;2023-04-07T14:01:32;6.27;;;3.10;;
14470;SDS011;7321;50.802;4.336;2023-04-07T14:03:59;6.93;;;3.03;;
14470;SDS011;7321;50.802;4.336;2023-04-07T14:06:27;6.07;;;3.47;;
14470;SDS011;7321;50.802;4.336;2023-04-07T14:08:53;7.00;;;4.17;;
14470;SDS011;7321;50.802;4.336;2023-04-07T14:11:19;6.63;;;3.87;;
14470;SDS011;7321;50.802;4.336;2023-04-07T14:13:46;8.27;;;4.47;;
14470;SDS011;7321;50.802;4.336;2023-04-07T14:16:13;8.33;;;3.90;;
14470;SDS011;7321;50.802;4.336;2023-04-07T14:18:39;6.37;;;3.80;;
14470;SDS011;7321;50.802;4.336;2023-04-07T14:21:05;7.33;;;3.83;;
14470;SDS011;7321;50.802;4.336;2023-04-07T14:23:31;8.23;;;3.70;;
14470;SDS011;7321;50.802;4.336;2023-04-07T14:25:57;8.93;;;3.37;;
14470;SDS011;7321;50.802;4.336;2023-04-07T14:28:23;7.00;;;3.53;;
14470;SDS011;7321;50.802;4.336;2023-04-07T14:30:53;9.23;;;4.40;;
14470;SDS011;7321;50.802;4.336;2023-04-07T14:33:20;8.77;;;4.10;;
14470;SDS011;7321;50.802;4.336;2023-04-07T14:35:46;8.97;;;4.33;;
14470;SDS011;7321;50.802;4.336;2023-04-07T14:38:13;8.33;;;4.00;;
14470;SDS011;7321;50.802;4.336;2023-04-07T14:40:39;7.80;;;4.10;;
14470;SDS011;7321;50.802;4.336;2023-04-07T14:43:05;7.17;;;4.10;;
14470;SDS011;7321;50.802;4.336;2023-04-07T14:45:32;7.00;;;3.90;;
14470;SDS011;7321;50.802;4.336;2023-04-07T14:48:02;6.93;;;3.83;;
14470;SDS011;7321;50.802;4.336;2023-04-07T14:50:30;6.43;;;3.53;;
14470;SDS011;7321;50.802;4.336;2023-04-07T14:52:58;8.33;;;3.80;;
14470;SDS011;7321;50.802;4.336;2023-04-07T14:55:24;5.77;;;2.87;;
14470;SDS011;7321;50.802;4.336;2023-04-07T14:57:50;4.63;;;2.60;;
14470;SDS011;7321;50.802;4.336;2023-04-07T15:00:16;4.70;;;3.00;;
14470;SDS011;7321;50.802;4.336;2023-04-07T15:02:42;5.47;;;2.83;;
14470;SDS011;7321;50.802;4.336;2023-04-07T15:05:08;3.10;;;2.17;;
14470;SDS011;7321;50.802;4.336;2023-04-07T15:07:34;4.47;;;2.30;;
14470;SDS011;7321;50.802;4.336;2023-04-07T15:10:00;4.67;;;2.23;;
14470;SDS011;7321;50.802;4.336;2023-04-07T15:12:26;5.83;;;2.57;;
14470;SDS011;7321;50.802;4.336;2023-04-07T15:14:53;5.27;;;2.40;;